sensor_id;sensor_type;location;lat;lon;timestamp;pressure;altitude;pressure_sealevel;temperature;humidity
16806;BME280;8520;50.102;20.010;2022-07-23T00:01:35;98263.06;;;26.06;66.57
16806;BME280;8520;50.102;20.010;2022-07-23T00:04:25;98264.66;;;25.74;67.57
16806;BME280;8520;50.102;20.010;2022-07-23T00:07:13;98267.41;;;25.32;68.74
16806;BME280;8520;50.102;20.010;2022-07-23T00:10:02;98261.31;;;24.86;70.24
16806;BME280;8520;50.102;20.010;2022-07-23T00:12:50;98263.94;;;24.91;71.96
16806;BME280;8520;50.102;20.010;2022-07-23T00:15:39;98256.44;;;25.19;71.00
16806;BME280;8520;50.102;20.010;2022-07-23T00:18:28;98251.59;;;25.12;73.06
16806;BME280;8520;50.102;20.010;2022-07-23T00:21:17;98257.13;;;25.52;70.47
16806;BME280;8520;50.102;20.010;2022-07-23T00:24:06;98249.84;;;25.24;71.75
16806;BME280;8520;50.102;20.010;2022-07-23T00:26:55;98244.06;;;24.82;72.71
16806;BME280;8520;50.102;20.010;2022-07-23T00:29:43;98252.41;;;25.30;70.56
16806;BME280;8520;50.102;20.010;2022-07-23T00:32:32;98251.09;;;25.06;71.35
16806;BME280;8520;50.102;20.010;2022-07-23T00:35:41;98252.69;;;25.41;67.79
16806;BME280;8520;50.102;20.010;2022-07-23T00:38:31;98264.97;;;24.71;73.03
16806;BME280;8520;50.102;20.010;2022-07-23T00:41:19;98265.50;;;24.77;72.61
16806;BME280;8520;50.102;20.010;2022-07-23T00:44:16;98262.63;;;24.52;72.13
16806;BME280;8520;50.102;20.010;2022-07-23T00:47:06;98256.63;;;24.48;72.27
16806;BME280;8520;50.102;20.010;2022-07-23T00:49:54;98267.81;;;24.71;70.69
16806;BME280;8520;50.102;20.010;2022-07-23T00:52:43;98255.31;;;24.89;70.12
16806;BME280;8520;50.102;20.010;2022-07-23T00:55:33;98252.19;;;25.10;68.63
16806;BME280;8520;50.102;20.010;2022-07-23T00:58:22;98260.91;;;24.97;68.25
16806;BME280;8520;50.102;20.010;2022-07-23T01:01:11;98264.16;;;25.18;67.44
16806;BME280;8520;50.102;20.010;2022-07-23T01:04:00;98264.22;;;25.36;66.45
16806;BME280;8520;50.102;20.010;2022-07-23T01:06:48;98261.28;;;25.26;66.08
16806;BME280;8520;50.102;20.010;2022-07-23T01:09:38;98263.59;;;24.87;67.11
16806;BME280;8520;50.102;20.010;2022-07-23T01:12:27;98256.97;;;24.92;67.17
16806;BME280;8520;50.102;20.010;2022-07-23T01:15:16;98265.72;;;24.72;66.92
16806;BME280;8520;50.102;20.010;2022-07-23T01:18:06;98265.91;;;24.74;66.98
16806;BME280;8520;50.102;20.010;2022-07-23T01:20:57;98263.06;;;24.81;66.47
16806;BME280;8520;50.102;20.010;2022-07-23T01:23:46;98249.44;;;25.28;64.87
16806;BME280;8520;50.102;20.010;2022-07-23T01:26:35;98252.94;;;25.78;63.56
16806;BME280;8520;50.102;20.010;2022-07-23T01:29:24;98248.16;;;25.46;64.37
16806;BME280;8520;50.102;20.010;2022-07-23T01:32:14;98253.84;;;25.13;65.66
16806;BME280;8520;50.102;20.010;2022-07-23T01:35:03;98248.56;;;25.42;64.90
16806;BME280;8520;50.102;20.010;2022-07-23T01:37:51;98249.53;;;25.37;65.31
16806;BME280;8520;50.102;20.010;2022-07-23T01:40:41;98251.56;;;25.19;65.81
16806;BME280;8520;50.102;20.010;2022-07-23T01:43:32;98255.41;;;25.07;66.47
16806;BME280;8520;50.102;20.010;2022-07-23T01:46:21;98258.38;;;24.76;67.82
16806;BME280;8520;50.102;20.010;2022-07-23T01:49:10;98263.28;;;24.68;68.43
16806;BME280;8520;50.102;20.010;2022-07-23T01:52:17;98265.16;;;24.73;68.06
16806;BME280;8520;50.102;20.010;2022-07-23T01:55:09;98261.91;;;25.17;67.14
16806;BME280;8520;50.102;20.010;2022-07-23T01:58:07;98266.06;;;24.76;68.56
16806;BME280;8520;50.102;20.010;2022-07-23T02:00:56;98259.25;;;24.54;69.48
16806;BME280;8520;50.102;20.010;2022-07-23T02:03:44;98257.38;;;24.49;69.97
16806;BME280;8520;50.102;20.010;2022-07-23T02:06:33;98247.66;;;24.42;69.88
16806;BME280;8520;50.102;20.010;2022-07-23T02:09:22;98251.94;;;23.80;72.34
16806;BME280;8520;50.102;20.010;2022-07-23T02:12:10;98258.09;;;23.48;73.50
16806;BME280;8520;50.102;20.010;2022-07-23T02:15:00;98254.19;;;23.66;73.06
16806;BME280;8520;50.102;20.010;2022-07-23T02:17:49;98245.38;;;23.70;73.38
16806;BME280;8520;50.102;20.010;2022-07-23T02:20:37;98248.56;;;24.52;70.44
16806;BME280;8520;50.102;20.010;2022-07-23T02:23:27;98246.22;;;24.99;68.82
16806;BME280;8520;50.102;20.010;2022-07-23T02:26:16;98254.25;;;25.10;68.13
16806;BME280;8520;50.102;20.010;2022-07-23T02:29:09;98258.72;;;24.80;69.23
16806;BME280;8520;50.102;20.010;2022-07-23T02:31:59;98257.22;;;24.39;70.70
16806;BME280;8520;50.102;20.010;2022-07-23T02:34:48;98264.75;;;24.21;71.31
16806;BME280;8520;50.102;20.010;2022-07-23T02:37:37;98265.47;;;24.45;70.66
16806;BME280;8520;50.102;20.010;2022-07-23T02:40:26;98257.13;;;24.06;71.60
16806;BME280;8520;50.102;20.010;2022-07-23T02:43:14;98252.59;;;24.19;71.14
16806;BME280;8520;50.102;20.010;2022-07-23T02:46:04;98256.97;;;23.28;74.01
16806;BME280;8520;50.102;20.010;2022-07-23T02:48:54;98255.84;;;23.08;74.89
16806;BME280;8520;50.102;20.010;2022-07-23T02:51:43;98258.28;;;22.96;75.84
16806;BME280;8520;50.102;20.010;2022-07-23T02:54:31;98259.63;;;22.52;76.93
16806;BME280;8520;50.102;20.010;2022-07-23T02:57:22;98261.34;;;22.19;78.70
16806;BME280;8520;50.102;20.010;2022-07-23T03:00:12;98259.69;;;21.95;79.49
16806;BME280;8520;50.102;20.010;2022-07-23T03:03:00;98270.91;;;22.23;79.09
16806;BME280;8520;50.102;20.010;2022-07-23T03:05:51;98263.44;;;21.97;79.95
16806;BME280;8520;50.102;20.010;2022-07-23T03:08:39;98260.22;;;22.22;79.31
16806;BME280;8520;50.102;20.010;2022-07-23T03:11:28;98263.59;;;21.92;80.61
16806;BME280;8520;50.102;20.010;2022-07-23T03:14:17;98256.66;;;22.21;79.78
16806;BME280;8520;50.102;20.010;2022-07-23T03:17:06;98255.19;;;22.28;79.29
16806;BME280;8520;50.102;20.010;2022-07-23T03:19:55;98254.84;;;21.95;80.56
16806;BME280;8520;50.102;20.010;2022-07-23T03:22:45;98255.16;;;21.92;80.88
16806;BME280;8520;50.102;20.010;2022-07-23T03:25:35;98254.38;;;21.83;81.13
16806;BME280;8520;50.102;20.010;2022-07-23T03:28:24;98251.06;;;21.93;80.48
16806;BME280;8520;50.102;20.010;2022-07-23T03:31:12;98251.84;;;22.01;80.67
16806;BME280;8520;50.102;20.010;2022-07-23T03:34:01;98253.75;;;22.06;80.06
16806;BME280;8520;50.102;20.010;2022-07-23T03:36:50;98258.84;;;22.07;80.12
16806;BME280;8520;50.102;20.010;2022-07-23T03:39:40;98252.53;;;21.86;80.95
16806;BME280;8520;50.102;20.010;2022-07-23T03:42:28;98261.44;;;22.05;80.60
16806;BME280;8520;50.102;20.010;2022-07-23T03:45:17;98253.63;;;22.11;81.28
16806;BME280;8520;50.102;20.010;2022-07-23T03:48:05;98245.66;;;21.95;82.30
16806;BME280;8520;50.102;20.010;2022-07-23T03:50:54;98239.84;;;22.29;80.63
16806;BME280;8520;50.102;20.010;2022-07-23T03:53:42;98247.06;;;22.09;81.93
16806;BME280;8520;50.102;20.010;2022-07-23T03:56:32;98247.41;;;22.05;81.79
16806;BME280;8520;50.102;20.010;2022-07-23T03:59:20;98248.34;;;22.44;80.78
16806;BME280;8520;50.102;20.010;2022-07-23T04:02:10;98247.50;;;22.21;81.74
16806;BME280;8520;50.102;20.010;2022-07-23T04:04:58;98241.75;;;22.34;81.01
16806;BME280;8520;50.102;20.010;2022-07-23T04:07:48;98250.59;;;22.46;81.31
16806;BME280;8520;50.102;20.010;2022-07-23T04:10:37;98250.69;;;22.68;80.71
16806;BME280;8520;50.102;20.010;2022-07-23T04:13:29;98246.63;;;22.85;79.56
16806;BME280;8520;50.102;20.010;2022-07-23T04:16:21;98255.09;;;23.00;78.57
16806;BME280;8520;50.102;20.010;2022-07-23T04:19:10;98250.25;;;23.23;76.54
16806;BME280;8520;50.102;20.010;2022-07-23T04:22:12;98249.59;;;22.79;77.61
16806;BME280;8520;50.102;20.010;2022-07-23T04:25:01;98244.53;;;22.78;76.97
16806;BME280;8520;50.102;20.010;2022-07-23T04:27:50;98252.50;;;22.51;78.10
16806;BME280;8520;50.102;20.010;2022-07-23T04:30:40;98240.91;;;22.54;78.12
16806;BME280;8520;50.102;20.010;2022-07-23T04:33:30;98240.47;;;23.09;77.22
16806;BME280;8520;50.102;20.010;2022-07-23T04:36:22;98236.94;;;23.47;75.59
16806;BME280;8520;50.102;20.010;2022-07-23T04:39:10;98232.78;;;23.86;74.09
16806;BME280;8520;50.102;20.010;2022-07-23T04:42:00;98234.19;;;24.18;73.55
16806;BME280;8520;50.102;20.010;2022-07-23T04:44:50;98234.31;;;23.72;75.40
16806;BME280;8520;50.102;20.010;2022-07-23T04:47:40;98234.19;;;24.65;72.10
16806;BME280;8520;50.102;20.010;2022-07-23T04:50:31;98229.97;;;24.82;71.67
16806;BME280;8520;50.102;20.010;2022-07-23T04:53:20;98230.31;;;25.18;69.80
16806;BME280;8520;50.102;20.010;2022-07-23T04:56:10;98234.47;;;24.85;71.12
16806;BME280;8520;50.102;20.010;2022-07-23T04:58:59;98252.47;;;24.57;71.44
16806;BME280;8520;50.102;20.010;2022-07-23T05:01:48;98249.63;;;24.57;71.09
16806;BME280;8520;50.102;20.010;2022-07-23T05:04:38;98253.72;;;24.71;71.12
16806;BME280;8520;50.102;20.010;2022-07-23T05:07:27;98244.50;;;25.03;70.44
16806;BME280;8520;50.102;20.010;2022-07-23T05:10:16;98243.31;;;24.81;71.72
16806;BME280;8520;50.102;20.010;2022-07-23T05:13:05;98241.78;;;24.88;71.51
16806;BME280;8520;50.102;20.010;2022-07-23T05:15:53;98244.00;;;25.22;70.26
16806;BME280;8520;50.102;20.010;2022-07-23T05:18:43;98236.06;;;25.03;70.35
16806;BME280;8520;50.102;20.010;2022-07-23T05:21:33;98242.13;;;25.24;69.90
16806;BME280;8520;50.102;20.010;2022-07-23T05:24:22;98247.94;;;25.51;69.83
16806;BME280;8520;50.102;20.010;2022-07-23T05:27:11;98236.59;;;25.76;69.02
16806;BME280;8520;50.102;20.010;2022-07-23T05:30:00;98243.28;;;26.06;68.24
16806;BME280;8520;50.102;20.010;2022-07-23T05:32:51;98241.69;;;25.95;68.71
16806;BME280;8520;50.102;20.010;2022-07-23T05:35:39;98253.72;;;25.96;69.31
16806;BME280;8520;50.102;20.010;2022-07-23T05:38:41;98252.47;;;26.24;67.96
16806;BME280;8520;50.102;20.010;2022-07-23T05:41:29;98245.34;;;25.88;69.18
16806;BME280;8520;50.102;20.010;2022-07-23T05:44:19;98243.84;;;26.04;69.19
16806;BME280;8520;50.102;20.010;2022-07-23T05:47:08;98246.25;;;26.25;68.07
16806;BME280;8520;50.102;20.010;2022-07-23T05:49:57;98246.94;;;26.16;68.03
16806;BME280;8520;50.102;20.010;2022-07-23T05:52:57;98240.78;;;26.45;66.94
16806;BME280;8520;50.102;20.010;2022-07-23T05:55:50;98241.53;;;25.68;69.49
16806;BME280;8520;50.102;20.010;2022-07-23T05:58:39;98240.50;;;26.33;68.61
16806;BME280;8520;50.102;20.010;2022-07-23T06:01:27;98245.16;;;26.55;67.53
16806;BME280;8520;50.102;20.010;2022-07-23T06:04:24;98243.25;;;26.85;66.60
16806;BME280;8520;50.102;20.010;2022-07-23T06:07:31;98237.94;;;26.27;68.03
16806;BME280;8520;50.102;20.010;2022-07-23T06:10:19;98240.84;;;25.85;68.90
16806;BME280;8520;50.102;20.010;2022-07-23T06:13:09;98236.38;;;26.34;69.36
16806;BME280;8520;50.102;20.010;2022-07-23T06:15:58;98237.97;;;26.99;67.35
16806;BME280;8520;50.102;20.010;2022-07-23T06:18:46;98236.94;;;26.50;67.50
16806;BME280;8520;50.102;20.010;2022-07-23T06:21:35;98239.94;;;27.06;66.62
16806;BME280;8520;50.102;20.010;2022-07-23T06:24:34;98238.03;;;27.45;65.45
16806;BME280;8520;50.102;20.010;2022-07-23T06:27:23;98226.19;;;27.75;65.03
16806;BME280;8520;50.102;20.010;2022-07-23T06:30:14;98221.88;;;28.03;64.25
16806;BME280;8520;50.102;20.010;2022-07-23T06:33:04;98228.63;;;27.98;65.67
16806;BME280;8520;50.102;20.010;2022-07-23T06:35:53;98223.69;;;27.99;65.82
16806;BME280;8520;50.102;20.010;2022-07-23T06:38:42;98216.81;;;28.02;64.24
16806;BME280;8520;50.102;20.010;2022-07-23T06:41:31;98229.50;;;27.35;63.78
16806;BME280;8520;50.102;20.010;2022-07-23T06:44:20;98223.97;;;27.28;64.79
16806;BME280;8520;50.102;20.010;2022-07-23T06:47:10;98219.50;;;27.90;63.70
16806;BME280;8520;50.102;20.010;2022-07-23T06:49:58;98220.69;;;28.06;63.79
16806;BME280;8520;50.102;20.010;2022-07-23T06:52:47;98214.72;;;28.51;63.30
16806;BME280;8520;50.102;20.010;2022-07-23T06:55:35;98209.91;;;28.73;62.27
16806;BME280;8520;50.102;20.010;2022-07-23T06:58:25;98214.25;;;28.64;63.82
16806;BME280;8520;50.102;20.010;2022-07-23T07:01:14;98208.78;;;28.97;62.62
16806;BME280;8520;50.102;20.010;2022-07-23T07:04:04;98205.06;;;29.35;61.08
16806;BME280;8520;50.102;20.010;2022-07-23T07:06:52;98206.16;;;29.52;60.84
16806;BME280;8520;50.102;20.010;2022-07-23T07:09:40;98209.28;;;29.56;60.37
16806;BME280;8520;50.102;20.010;2022-07-23T07:12:31;98206.91;;;29.21;62.40
16806;BME280;8520;50.102;20.010;2022-07-23T07:15:20;98199.41;;;29.78;59.82
16806;BME280;8520;50.102;20.010;2022-07-23T07:18:08;98204.22;;;29.76;59.32
16806;BME280;8520;50.102;20.010;2022-07-23T07:20:58;98204.44;;;30.11;58.19
16806;BME280;8520;50.102;20.010;2022-07-23T07:23:47;98204.47;;;30.01;59.51
16806;BME280;8520;50.102;20.010;2022-07-23T07:26:35;98207.19;;;30.20;58.44
16806;BME280;8520;50.102;20.010;2022-07-23T07:29:25;98201.88;;;30.59;57.91
16806;BME280;8520;50.102;20.010;2022-07-23T07:32:14;98201.06;;;30.80;57.69
16806;BME280;8520;50.102;20.010;2022-07-23T07:35:23;98196.25;;;31.06;56.88
16806;BME280;8520;50.102;20.010;2022-07-23T07:38:13;98188.22;;;31.14;56.49
16806;BME280;8520;50.102;20.010;2022-07-23T07:41:01;98190.94;;;31.48;54.36
16806;BME280;8520;50.102;20.010;2022-07-23T07:43:49;98179.88;;;31.77;54.17
16806;BME280;8520;50.102;20.010;2022-07-23T07:46:38;98184.53;;;31.96;54.51
16806;BME280;8520;50.102;20.010;2022-07-23T07:49:27;98176.28;;;32.14;54.64
16806;BME280;8520;50.102;20.010;2022-07-23T07:52:21;98184.50;;;32.33;54.42
16806;BME280;8520;50.102;20.010;2022-07-23T07:55:12;98191.41;;;32.42;52.41
16806;BME280;8520;50.102;20.010;2022-07-23T07:58:00;98200.34;;;32.62;52.87
16806;BME280;8520;50.102;20.010;2022-07-23T08:00:49;98191.38;;;32.67;52.85
16806;BME280;8520;50.102;20.010;2022-07-23T08:03:38;98191.63;;;32.46;51.48
16806;BME280;8520;50.102;20.010;2022-07-23T08:06:26;98192.16;;;32.81;50.64
16806;BME280;8520;50.102;20.010;2022-07-23T08:09:15;98194.22;;;32.93;49.97
16806;BME280;8520;50.102;20.010;2022-07-23T08:12:05;98206.38;;;33.07;49.77
16806;BME280;8520;50.102;20.010;2022-07-23T08:14:53;98204.28;;;33.21;50.26
16806;BME280;8520;50.102;20.010;2022-07-23T08:17:43;98202.06;;;33.33;49.82
16806;BME280;8520;50.102;20.010;2022-07-23T08:20:31;98202.31;;;33.51;49.39
16806;BME280;8520;50.102;20.010;2022-07-23T08:23:20;98204.94;;;33.75;49.02
16806;BME280;8520;50.102;20.010;2022-07-23T08:26:15;98202.69;;;33.87;48.42
16806;BME280;8520;50.102;20.010;2022-07-23T08:29:05;98198.56;;;33.90;47.64
16806;BME280;8520;50.102;20.010;2022-07-23T08:31:54;98199.31;;;33.90;48.22
16806;BME280;8520;50.102;20.010;2022-07-23T08:34:42;98201.56;;;33.51;48.29
16806;BME280;8520;50.102;20.010;2022-07-23T08:37:30;98210.84;;;33.79;48.92
16806;BME280;8520;50.102;20.010;2022-07-23T08:40:19;98208.91;;;33.83;48.12
16806;BME280;8520;50.102;20.010;2022-07-23T08:43:09;98205.66;;;33.89;45.91
16806;BME280;8520;50.102;20.010;2022-07-23T08:46:01;98195.09;;;33.78;45.69
16806;BME280;8520;50.102;20.010;2022-07-23T08:48:50;98195.34;;;34.11;44.74
16806;BME280;8520;50.102;20.010;2022-07-23T08:51:39;98197.09;;;34.18;44.29
16806;BME280;8520;50.102;20.010;2022-07-23T08:54:28;98190.75;;;34.49;44.49
16806;BME280;8520;50.102;20.010;2022-07-23T08:57:16;98187.47;;;34.71;44.39
16806;BME280;8520;50.102;20.010;2022-07-23T09:00:06;98182.31;;;34.99;44.19
16806;BME280;8520;50.102;20.010;2022-07-23T09:02:56;98172.34;;;35.00;43.85
16806;BME280;8520;50.102;20.010;2022-07-23T09:05:45;98167.34;;;35.00;44.15
16806;BME280;8520;50.102;20.010;2022-07-23T09:08:35;98159.69;;;35.21;43.00
16806;BME280;8520;50.102;20.010;2022-07-23T09:11:24;98150.16;;;35.16;43.15
16806;BME280;8520;50.102;20.010;2022-07-23T09:14:12;98162.38;;;35.17;43.72
16806;BME280;8520;50.102;20.010;2022-07-23T09:17:08;98154.47;;;35.33;42.71
16806;BME280;8520;50.102;20.010;2022-07-23T09:20:07;98164.56;;;35.50;42.93
16806;BME280;8520;50.102;20.010;2022-07-23T09:22:56;98163.13;;;35.67;43.20
16806;BME280;8520;50.102;20.010;2022-07-23T09:26:00;98157.78;;;35.59;43.21
16806;BME280;8520;50.102;20.010;2022-07-23T09:28:55;98162.13;;;35.60;42.67
16806;BME280;8520;50.102;20.010;2022-07-23T09:31:46;98171.19;;;35.54;41.58
16806;BME280;8520;50.102;20.010;2022-07-23T09:34:36;98160.53;;;35.08;40.91
16806;BME280;8520;50.102;20.010;2022-07-23T09:37:27;98163.94;;;34.57;42.97
16806;BME280;8520;50.102;20.010;2022-07-23T09:40:16;98176.16;;;35.04;42.63
16806;BME280;8520;50.102;20.010;2022-07-23T09:43:05;98160.69;;;35.27;42.67
16806;BME280;8520;50.102;20.010;2022-07-23T09:45:53;98156.31;;;35.58;42.47
16806;BME280;8520;50.102;20.010;2022-07-23T09:49:12;98142.75;;;35.76;41.56
16806;BME280;8520;50.102;20.010;2022-07-23T09:52:02;98138.34;;;35.91;41.41
16806;BME280;8520;50.102;20.010;2022-07-23T09:54:57;98134.66;;;36.06;40.71
16806;BME280;8520;50.102;20.010;2022-07-23T09:57:47;98136.78;;;36.06;39.57
16806;BME280;8520;50.102;20.010;2022-07-23T10:00:37;98134.06;;;35.92;40.44
16806;BME280;8520;50.102;20.010;2022-07-23T10:03:26;98136.41;;;35.62;40.46
16806;BME280;8520;50.102;20.010;2022-07-23T10:06:51;98130.28;;;35.70;39.38
16806;BME280;8520;50.102;20.010;2022-07-23T10:10:01;98118.88;;;35.72;39.84
16806;BME280;8520;50.102;20.010;2022-07-23T10:13:00;98128.19;;;35.88;40.42
16806;BME280;8520;50.102;20.010;2022-07-23T10:16:08;98136.56;;;35.66;40.14
16806;BME280;8520;50.102;20.010;2022-07-23T10:18:56;98133.09;;;35.85;40.19
16806;BME280;8520;50.102;20.010;2022-07-23T10:21:48;98130.50;;;35.58;40.33
16806;BME280;8520;50.102;20.010;2022-07-23T10:24:50;98124.25;;;35.97;40.50
16806;BME280;8520;50.102;20.010;2022-07-23T10:27:55;98130.41;;;36.07;39.75
16806;BME280;8520;50.102;20.010;2022-07-23T10:30:54;98129.91;;;36.13;40.55
16806;BME280;8520;50.102;20.010;2022-07-23T10:33:56;98130.47;;;36.45;39.76
16806;BME280;8520;50.102;20.010;2022-07-23T10:36:55;98128.88;;;36.60;40.58
16806;BME280;8520;50.102;20.010;2022-07-23T10:39:45;98117.28;;;37.15;39.88
16806;BME280;8520;50.102;20.010;2022-07-23T10:42:34;98114.53;;;37.39;38.87
16806;BME280;8520;50.102;20.010;2022-07-23T10:45:27;98113.03;;;37.58;38.69
16806;BME280;8520;50.102;20.010;2022-07-23T10:48:17;98118.53;;;37.10;39.06
16806;BME280;8520;50.102;20.010;2022-07-23T10:51:07;98110.94;;;36.79;40.17
16806;BME280;8520;50.102;20.010;2022-07-23T10:53:57;98103.28;;;35.93;41.50
16806;BME280;8520;50.102;20.010;2022-07-23T10:57:06;98099.91;;;35.98;41.62
16806;BME280;8520;50.102;20.010;2022-07-23T11:00:20;98105.19;;;36.59;40.57
16806;BME280;8520;50.102;20.010;2022-07-23T11:03:32;98099.81;;;37.09;39.30
16806;BME280;8520;50.102;20.010;2022-07-23T11:06:23;98097.72;;;37.73;39.41
16806;BME280;8520;50.102;20.010;2022-07-23T11:09:24;98090.31;;;37.88;38.17
16806;BME280;8520;50.102;20.010;2022-07-23T11:12:32;98086.97;;;37.96;38.84
16806;BME280;8520;50.102;20.010;2022-07-23T11:15:22;98081.22;;;38.41;37.96
16806;BME280;8520;50.102;20.010;2022-07-23T11:18:11;98085.31;;;37.25;36.62
16806;BME280;8520;50.102;20.010;2022-07-23T11:24:50;98093.44;;;36.15;37.26
16806;BME280;8520;50.102;20.010;2022-07-23T11:27:39;98097.63;;;36.88;37.93
16806;BME280;8520;50.102;20.010;2022-07-23T11:30:39;98099.72;;;35.25;37.98
16806;BME280;8520;50.102;20.010;2022-07-23T11:33:28;98083.97;;;34.45;39.05
16806;BME280;8520;50.102;20.010;2022-07-23T11:36:18;98076.78;;;35.41;38.01
16806;BME280;8520;50.102;20.010;2022-07-23T11:39:08;98076.19;;;36.71;36.91
16806;BME280;8520;50.102;20.010;2022-07-23T11:41:58;98074.91;;;36.36;36.93
16806;BME280;8520;50.102;20.010;2022-07-23T11:44:47;98082.56;;;35.94;37.97
16806;BME280;8520;50.102;20.010;2022-07-23T11:47:36;98073.19;;;36.67;36.46
16806;BME280;8520;50.102;20.010;2022-07-23T11:50:24;98067.72;;;36.55;36.44
16806;BME280;8520;50.102;20.010;2022-07-23T11:53:21;98055.44;;;36.53;36.75
16806;BME280;8520;50.102;20.010;2022-07-23T11:56:11;98042.91;;;37.45;36.37
16806;BME280;8520;50.102;20.010;2022-07-23T11:58:59;98053.00;;;37.90;35.38
16806;BME280;8520;50.102;20.010;2022-07-23T12:01:56;98049.94;;;37.20;36.08
16806;BME280;8520;50.102;20.010;2022-07-23T12:04:47;98043.63;;;36.07;37.31
16806;BME280;8520;50.102;20.010;2022-07-23T12:07:37;98035.38;;;37.34;36.56
16806;BME280;8520;50.102;20.010;2022-07-23T12:10:29;98035.34;;;37.56;35.83
16806;BME280;8520;50.102;20.010;2022-07-23T12:13:19;98029.19;;;38.85;34.26
16806;BME280;8520;50.102;20.010;2022-07-23T12:16:09;98031.91;;;38.05;35.56
16806;BME280;8520;50.102;20.010;2022-07-23T12:18:58;98020.94;;;39.56;32.74
16806;BME280;8520;50.102;20.010;2022-07-23T12:21:47;98020.75;;;40.07;32.08
16806;BME280;8520;50.102;20.010;2022-07-23T12:24:54;98029.59;;;36.72;35.61
16806;BME280;8520;50.102;20.010;2022-07-23T12:27:44;98000.16;;;38.25;34.41
16806;BME280;8520;50.102;20.010;2022-07-23T12:30:38;98006.47;;;39.23;32.81
16806;BME280;8520;50.102;20.010;2022-07-23T12:33:27;98003.91;;;40.30;32.99
16806;BME280;8520;50.102;20.010;2022-07-23T12:36:16;98016.63;;;38.73;33.94
16806;BME280;8520;50.102;20.010;2022-07-23T12:39:04;98002.66;;;37.23;35.58
16806;BME280;8520;50.102;20.010;2022-07-23T12:41:53;98021.41;;;37.05;35.46
16806;BME280;8520;50.102;20.010;2022-07-23T12:45:09;98006.88;;;38.10;35.18
16806;BME280;8520;50.102;20.010;2022-07-23T12:48:04;97992.72;;;38.68;34.37
16806;BME280;8520;50.102;20.010;2022-07-23T12:50:56;97989.16;;;38.44;34.83
16806;BME280;8520;50.102;20.010;2022-07-23T12:53:47;97979.97;;;38.23;34.68
16806;BME280;8520;50.102;20.010;2022-07-23T12:56:38;97985.69;;;39.57;33.34
16806;BME280;8520;50.102;20.010;2022-07-23T12:59:30;97985.28;;;41.13;32.03
16806;BME280;8520;50.102;20.010;2022-07-23T13:02:21;97988.50;;;39.25;33.22
16806;BME280;8520;50.102;20.010;2022-07-23T13:05:09;97973.28;;;39.22;33.81
16806;BME280;8520;50.102;20.010;2022-07-23T13:07:58;97974.78;;;40.18;32.76
16806;BME280;8520;50.102;20.010;2022-07-23T13:10:49;97966.47;;;39.38;33.52
16806;BME280;8520;50.102;20.010;2022-07-23T13:13:38;97961.50;;;38.58;34.56
16806;BME280;8520;50.102;20.010;2022-07-23T13:16:27;97984.44;;;36.15;36.13
16806;BME280;8520;50.102;20.010;2022-07-23T13:19:19;97976.28;;;37.75;34.67
16806;BME280;8520;50.102;20.010;2022-07-23T13:22:11;97958.31;;;39.00;33.42
16806;BME280;8520;50.102;20.010;2022-07-23T13:24:59;97963.84;;;38.14;36.06
16806;BME280;8520;50.102;20.010;2022-07-23T13:27:48;97953.59;;;38.59;34.06
16806;BME280;8520;50.102;20.010;2022-07-23T13:30:36;97947.41;;;38.96;34.11
16806;BME280;8520;50.102;20.010;2022-07-23T13:33:25;97959.13;;;38.77;34.81
16806;BME280;8520;50.102;20.010;2022-07-23T13:36:15;97960.06;;;38.85;33.97
16806;BME280;8520;50.102;20.010;2022-07-23T13:39:04;97954.03;;;36.86;37.09
16806;BME280;8520;50.102;20.010;2022-07-23T13:41:56;97951.44;;;36.34;36.70
16806;BME280;8520;50.102;20.010;2022-07-23T13:44:44;97953.09;;;36.81;36.56
16806;BME280;8520;50.102;20.010;2022-07-23T13:47:34;97950.03;;;37.84;35.63
16806;BME280;8520;50.102;20.010;2022-07-23T13:50:23;97931.97;;;38.58;34.01
16806;BME280;8520;50.102;20.010;2022-07-23T13:53:22;97929.56;;;37.74;36.02
16806;BME280;8520;50.102;20.010;2022-07-23T13:56:11;97922.41;;;37.75;35.12
16806;BME280;8520;50.102;20.010;2022-07-23T13:59:00;97940.97;;;37.48;35.25
16806;BME280;8520;50.102;20.010;2022-07-23T14:01:49;97938.91;;;37.51;34.68
16806;BME280;8520;50.102;20.010;2022-07-23T14:04:57;97921.84;;;37.33;35.48
16806;BME280;8520;50.102;20.010;2022-07-23T14:07:46;97925.69;;;37.88;34.40
16806;BME280;8520;50.102;20.010;2022-07-23T14:10:38;97933.22;;;37.53;35.34
16806;BME280;8520;50.102;20.010;2022-07-23T14:13:27;97925.50;;;37.36;35.46
16806;BME280;8520;50.102;20.010;2022-07-23T14:16:16;97911.56;;;36.03;37.19
16806;BME280;8520;50.102;20.010;2022-07-23T14:19:06;97915.28;;;35.50;37.87
16806;BME280;8520;50.102;20.010;2022-07-23T14:21:54;97889.84;;;35.04;38.97
16806;BME280;8520;50.102;20.010;2022-07-23T14:24:43;97869.00;;;34.68;39.51
16806;BME280;8520;50.102;20.010;2022-07-23T14:27:33;97873.22;;;35.01;39.18
16806;BME280;8520;50.102;20.010;2022-07-23T14:30:21;97889.22;;;34.39;39.73
16806;BME280;8520;50.102;20.010;2022-07-23T14:33:19;97884.47;;;34.12;40.60
16806;BME280;8520;50.102;20.010;2022-07-23T14:36:08;97872.09;;;34.07;40.34
16806;BME280;8520;50.102;20.010;2022-07-23T14:39:02;97872.50;;;34.49;40.54
16806;BME280;8520;50.102;20.010;2022-07-23T14:41:51;97880.81;;;34.27;40.98
16806;BME280;8520;50.102;20.010;2022-07-23T14:44:41;97881.50;;;33.78;42.11
16806;BME280;8520;50.102;20.010;2022-07-23T14:47:30;97892.56;;;33.86;41.58
16806;BME280;8520;50.102;20.010;2022-07-23T14:50:18;97909.91;;;34.06;42.15
16806;BME280;8520;50.102;20.010;2022-07-23T14:53:07;97935.06;;;33.78;42.41
16806;BME280;8520;50.102;20.010;2022-07-23T14:55:55;97925.91;;;33.65;42.39
16806;BME280;8520;50.102;20.010;2022-07-23T14:58:45;97903.31;;;33.56;43.12
16806;BME280;8520;50.102;20.010;2022-07-23T15:01:35;97900.38;;;33.54;43.29
16806;BME280;8520;50.102;20.010;2022-07-23T15:04:24;97908.47;;;33.44;43.41
16806;BME280;8520;50.102;20.010;2022-07-23T15:07:24;97901.50;;;33.33;43.42
16806;BME280;8520;50.102;20.010;2022-07-23T15:10:13;97910.66;;;33.45;43.31